Hovedside
METAR-TAF:

METAR-TAF

Lufthavner :

Arvidsjaur, Sverige

Arvidsjaur lufthavn

breddegrad: 65-35-25N, lengdegrad: 019-16-55E, høyde over havet: 379 m

Gjeldene værobservasjon

Denne rapporten ble laget for 33 minutter siden, klokken 21:20 UTC
Vind 5 kt fra Øst-sørøst
Temperatur 12°C
Luftfuktighet 88%
Trykk 1009 hPa
Sikt 10 km eller mer

METAR: ESNX 182120Z AUTO 12005KT 9999 NCD 12/10 Q1009

Tid: 23:53 (21:53 UTC)

Varsel

Denne rapporten ble laget for 4 timer og 23 minutter siden, klokken 17:30 UTC
Varsel gyldig fra 18. klokken 18 UTC til 18. klokken 20 UTC
Vind 4 kt fra Sør
Sikt 10 km eller mer
Brutte skyer i en høyde av 2500 ft

TAF: ESNX 181730Z 1818/1820 17004KT 9999 BKN025

Værobservasjoner og værvarsel for over 4000 flyplasser (METAR- og TAF-rapporter).

Tilgjengelige stasjoner er representert av de røde og gule prikkene på kartet.

Hold musepekeren over prikken for å se navnet på stasjonen.

Klikk så for å se værobservasjoner og -varsler.

For å forandre kartet kan du klikke på den grønne knappen med svart kryss for å zoome inn, på den grønne knappen med strek for å zoome ut, eller på de grønne pilene for å se tilstøtende kart.


METAR-TAF: